עמוד ראשי
METAR-TAF:

METAR-TAF

שדות תעופה :

נמל התעופה הבינלאומי ולדיווסטוק

ולדיווסטוק, רוסיה

קו רוחב: 43-07N, קו אורך: 131-56E, גובה: 184מטר

תצפית מזג אוויר נוכחית

הדו"ח נערך לפני 32דקות, בשעה 10:30 UTC
רוח 6קשר מכיוון מערב/דרום-מערב
טמפרטורת 23 צלסיוס
לחות 83%
לחץ 1014 hPa
ראות 10 קילומטר או יותר
עננים בינוניים בגובה 4000רגל

METAR: UHWW 141030Z 24003MPS 9999 BKN040 23/20 Q1014 R25L/0///70 NOSIG RMK QFE759

זמן: 21:02 (11:02 UTC)

תחזית

הדו"ח נערך לפני 3 שעות ו 2דקות, בשעה 08:00 UTC
תחזית בתוקף מ 14 ב 09 UTC עד 15 ב 09 UTC
רוח 6קשר מכיוון מערב/דרום-מערב עם משבים עד 16קשר
ראות 10 קילומטר או יותר
עננים בינוניים בגובה 2500רגל
יעשה מ
14 ב 11 UTC עד 14 ב 13 UTC
רוח 6קשר מכיוון מזרח/דרום-מזרח
עננים בינוניים בגובה 1000רגל
זמנית מ -
14 ב 14 UTC עד 14 ב 23 UTC
ראות: 6000מטר
עננים בינוניים בגובה 500רגל
יעשה מ
15 ב 00 UTC עד 15 ב 02 UTC
רוח 6קשר מכיוון דרום עם משבים עד 16קשר
עננים בינוניים בגובה 2000רגל

TAF: UHWW 140800Z 1409/1509 24003G08MPS 9999 BKN025 BECMG 1411/1413 12003MPS BKN010 TEMPO 1414/1423 6000 BKN005 BECMG 1500/1502 18003G08MPS BKN020

תצפיות ותחזיות מזג אוויר לגבי יותר מ- 4,000 שדות תעופה ברחבי העולם. דוחות METAR ו- TAF.

התחנות הזמינות מסומנות בנקודות צהובות ואדומות על גבי המפה.

העבר את העכבר לנקודה הצבעונית על מנת לראות את שם התחנה.

לאחר מכן, לחץ כדי לראות את תוכן ואת תחזיות מזג האוויר.

כדי לשנות את המפה: לחץ על הכפתורים הירוקים עם הפלוס השחור כדי להתקרב; על הכפתור הירוק עם המקף כדי להתרחק; או בחיצים הירוקים למפות סמוכות.


METAR-TAF: